WXcenter Banner NOAA Logo links to NOAA website FRD Logo links to FRD website

NOAA INL CURRENT OBSERVATIONS


NOAA AIR RESOURCES LABORATORY
MESONET WEATHER CONDITIONS FOR 19-Jun-19

Towers located at INL Facilities:

                      Time  Dir/Spd  Temp  WC  RH  Pres.
Location              MDT   deg/mph   (F)  (F)  %  In.Hg

ATR                  05:35  269/  5    46  44  94  25.04
CFA                  05:35  280/  8    47  43  92  25.02
CIT                  05:35  303/  7    44  40  92  25.04
INTEC                05:35  267/  5    46  43  87  25.05
MFC                  05:35  268/  1    46  46  93  24.83
NRF                  05:35  218/  4    48  46  88  25.10
RWMC                 05:35  285/  6    48  46  92  24.94
SMC                  05:35   18/  5    49  47  78  25.14

Other towers located inside the INL:

                      Time  Dir/Spd  Temp  WC  RH  Pres.
Location              MDT   deg/mph   (F)  (F)  %  In.Hg

Base of Howe Peak    05:35  194/  7    47  44  85  25.06
Deadman Canyon       05:35  266/  6    49  46  89  24.86
Lost River           05:35  278/  8    46  42  90  24.97
Rover                05:35  324/  3    48  48  97  24.96
Sand Dunes           05:35   13/  9    49  45  80  25.12

Towers located outside the INL:

                      Time  Dir/Spd  Temp  WC  RH  Pres.
Location              MDT   deg/mph   (F)  (F)  %  In.Hg

Aberdeen             05:35  216/  9    55  --  69  25.49
Arco                 05:35   70/  4    46  44  85
Atomic City          05:35  299/ 10    47  43  92  24.93
Blackfoot            05:35  203/  7    56  --  58  25.41
Blue Dome            05:35  334/ 13    52  --  66
Cox's Well           05:35  292/  7    48  45  86
Craters of the Moon  05:35  148/  3    55  --  63  24.11
Dubois               05:35   52/  8    48  45  72  24.55
Fort Hall            05:35  213/ 14    55  --  60  25.46
Hamer                05:35    4/  9    48  44  89
Howe                 05:35  209/  4    47  46  88
Idaho Falls (REC)    05:35  190/  5    57  --  63  25.21
Kettle Butte         05:35  180/  8    53  --  69  24.78
Minidoka             05:35  240/  8    49  45  77  25.63
Monteview            05:35    6/  6    45  42  91  25.15
Richfield            05:35  299/  5    50  --  68  25.58
Roberts              05:35  111/  3    49  49  93
Sugar City           05:35   18/  6    46  42 100  25.04
Taber                05:35    5/  8    45  41  92
Terreton             05:35   59/  4    50  --  84  25.15

Updated every 5 minutes. Unreviewed data; maintenance may cause some errors.
Current conditions: 526-8884   Info: 526-2744
            

This page automatically refreshes every 5 minutes.


Modified: March 1, 2011
Dept. of Commerce |  NOAA |  NOAA Research |  ARL |  FRD Privacy |  Disclaimer |  Information Quality |  webmaster